Time,TemperatureF,DewpointF,PressureIn,WindDirection,WindDirectionDegrees,WindSpeedMPH,WindSpeedGustMPH,Humidity,HourlyPrecipIn,Conditions,Clouds,dailyrainin,SolarRadiationWatts/m^2,SoftwareType,DateUTC
2013-01-02 00:22:00,32.0,32.0,-100.00,SE,140,0.0,2.0,100,0.00,,,0.56,0.000000,,2013-01-02 09:22:00,
2013-01-02 00:32:00,32.0,32.0,-100.00,SE,140,0.0,2.0,100,0.00,,,0.56,0.000000,,2013-01-02 09:32:00,
2013-01-02 00:43:00,32.0,32.0,-100.00,SE,140,0.0,2.0,100,0.00,,,0.56,0.000000,,2013-01-02 09:43:00,
2013-01-02 00:52:00,32.0,32.0,-100.00,SE,140,0.0,2.0,100,0.00,,,0.56,0.000000,,2013-01-02 09:52:00,
2013-01-02 01:12:00,32.0,32.0,-100.00,NE,51,0.0,1.0,100,0.00,,,0.43,0.000000,,2013-01-02 10:12:00,
2013-01-02 01:22:00,32.0,32.0,-100.00,NE,51,0.0,1.0,100,0.00,,,0.43,0.000000,,2013-01-02 10:22:00,
2013-01-02 01:32:00,32.0,32.0,-100.00,NE,51,0.0,1.0,100,0.00,,,0.43,0.000000,,2013-01-02 10:32:00,
2013-01-02 01:42:00,32.0,32.0,-100.00,NE,51,0.0,1.0,100,0.00,,,0.43,0.000000,,2013-01-02 10:42:00,
2013-01-02 01:52:00,32.0,32.0,-100.00,NE,51,0.0,1.0,100,0.00,,,0.43,0.000000,,2013-01-02 10:52:00,
2013-01-02 02:22:00,32.0,32.0,-100.00,ESE,104,0.0,6.0,100,0.00,,,0.30,0.000000,,2013-01-02 11:22:00,
2013-01-02 02:32:00,32.0,32.0,-100.00,ESE,104,0.0,6.0,100,0.00,,,0.30,0.000000,,2013-01-02 11:32:00,
2013-01-02 02:42:00,32.0,32.0,-100.00,ESE,104,0.0,6.0,100,0.00,,,0.30,0.000000,,2013-01-02 11:42:00,
2013-01-02 02:52:00,32.0,32.0,-100.00,ESE,104,0.0,6.0,100,0.00,,,0.30,0.000000,,2013-01-02 11:52:00,
2013-01-02 03:22:00,32.0,32.0,-100.00,East,91,0.0,3.0,100,0.00,,,0.19,0.000000,,2013-01-02 12:22:00,
2013-01-02 03:32:00,32.0,32.0,-100.00,East,91,0.0,3.0,100,0.00,,,0.19,0.000000,,2013-01-02 12:32:00,
2013-01-02 03:42:00,32.0,32.0,-100.00,East,91,0.0,3.0,100,0.00,,,0.19,0.000000,,2013-01-02 12:42:00,
2013-01-02 03:52:00,32.0,32.0,-100.00,East,91,0.0,3.0,100,0.00,,,0.19,0.000000,,2013-01-02 12:52:00,
2013-01-02 04:22:00,32.0,32.0,-100.00,ENE,77,0.0,1.0,100,0.00,,,0.11,0.000000,,2013-01-02 13:22:00,
2013-01-02 04:32:00,32.0,32.0,-100.00,ENE,77,0.0,1.0,100,0.00,,,0.11,0.000000,,2013-01-02 13:32:00,
2013-01-02 04:42:00,32.0,32.0,-100.00,ENE,77,0.0,1.0,100,0.00,,,0.11,0.000000,,2013-01-02 13:42:00,
2013-01-02 04:52:00,32.0,32.0,-100.00,ENE,77,0.0,1.0,100,0.00,,,0.11,0.000000,,2013-01-02 13:52:00,
2013-01-02 05:22:00,32.0,32.0,-100.00,ENE,67,0.0,1.0,100,0.00,,,0.08,0.000000,,2013-01-02 14:22:00,
2013-01-02 05:32:00,32.0,32.0,-100.00,ENE,67,0.0,1.0,100,0.00,,,0.08,0.000000,,2013-01-02 14:32:00,
2013-01-02 05:42:00,32.0,32.0,-100.00,ENE,67,0.0,1.0,100,0.00,,,0.08,0.000000,,2013-01-02 14:42:00,
2013-01-02 05:53:00,32.0,32.0,-100.00,ENE,67,0.0,1.0,100,0.00,,,0.08,0.000000,,2013-01-02 14:53:00,
2013-01-02 06:22:00,32.0,32.0,-100.00,ENE,60,0.0,0.0,100,0.00,,,0.04,0.000000,,2013-01-02 15:22:00,
2013-01-02 06:33:00,32.0,32.0,-100.00,ENE,60,0.0,0.0,100,0.00,,,0.04,0.000000,,2013-01-02 15:33:00,
2013-01-02 06:42:00,32.0,32.0,-100.00,ENE,60,0.0,0.0,100,0.00,,,0.04,0.000000,,2013-01-02 15:42:00,
2013-01-02 06:52:00,32.0,32.0,-100.00,ENE,60,0.0,0.0,100,0.00,,,0.04,0.000000,,2013-01-02 15:52:00,
2013-01-02 07:22:00,32.0,32.0,-100.00,ENE,66,0.0,1.0,100,0.00,,,0.01,0.000000,,2013-01-02 16:22:00,
2013-01-02 07:33:00,32.0,32.0,-100.00,ENE,66,0.0,1.0,100,0.00,,,0.01,0.000000,,2013-01-02 16:33:00,
2013-01-02 07:42:00,32.0,32.0,-100.00,ENE,66,0.0,1.0,100,0.00,,,0.01,0.000000,,2013-01-02 16:42:00,
2013-01-02 07:53:00,32.0,32.0,-100.00,ENE,66,0.0,1.0,100,0.00,,,0.01,0.000000,,2013-01-02 16:53:00,
2013-01-02 08:22:00,32.0,32.0,-100.00,ENE,69,0.0,0.0,100,0.00,,,0.00,0.000000,,2013-01-02 17:22:00,
2013-01-02 08:33:00,32.0,32.0,-100.00,ENE,69,0.0,0.0,100,0.00,,,0.00,0.000000,,2013-01-02 17:33:00,
2013-01-02 08:43:00,32.0,32.0,-100.00,ENE,69,0.0,0.0,100,0.00,,,0.00,0.000000,,2013-01-02 17:43:00,
2013-01-02 08:53:00,32.0,32.0,-100.00,ENE,69,0.0,0.0,100,0.00,,,0.00,0.000000,,2013-01-02 17:53:00,
2013-01-02 09:22:00,32.0,32.0,-100.00,SE,131,0.0,5.0,100,0.00,,,0.00,0.000000,,2013-01-02 18:22:00,
2013-01-02 09:33:00,32.0,32.0,-100.00,SE,131,0.0,5.0,100,0.00,,,0.00,0.000000,,2013-01-02 18:33:00,
2013-01-02 09:42:00,32.0,32.0,-100.00,SE,131,0.0,5.0,100,0.00,,,0.00,0.000000,,2013-01-02 18:42:00,
2013-01-02 09:52:00,32.0,32.0,-100.00,SE,131,0.0,5.0,100,0.00,,,0.00,0.000000,,2013-01-02 18:52:00,
2013-01-02 10:22:00,32.0,32.0,-100.00,East,83,0.0,5.0,100,0.00,,,0.00,0.000000,,2013-01-02 19:22:00,
2013-01-02 10:32:00,32.0,32.0,-100.00,East,83,0.0,5.0,100,0.00,,,0.00,0.000000,,2013-01-02 19:32:00,
2013-01-02 10:42:00,32.0,32.0,-100.00,East,83,0.0,5.0,100,0.00,,,0.00,0.000000,,2013-01-02 19:42:00,
2013-01-02 10:52:00,32.0,32.0,-100.00,East,83,0.0,5.0,100,0.00,,,0.00,0.000000,,2013-01-02 19:52:00,
2013-01-02 11:22:00,32.0,32.0,-100.00,ENE,59,0.0,1.0,100,0.00,,,0.00,1.000000,,2013-01-02 20:22:00,
2013-01-02 11:33:00,32.0,32.0,-100.00,ENE,59,0.0,1.0,100,0.00,,,0.00,1.000000,,2013-01-02 20:33:00,
2013-01-02 11:42:00,32.0,32.0,-100.00,ENE,59,0.0,1.0,100,0.00,,,0.00,1.000000,,2013-01-02 20:42:00,
2013-01-02 11:53:00,32.0,32.0,-100.00,ENE,59,0.0,1.0,100,0.00,,,0.00,1.000000,,2013-01-02 20:53:00,
2013-01-02 12:22:00,32.0,32.0,-100.00,ENE,72,0.0,1.0,100,0.00,,,0.00,4.000000,,2013-01-02 21:22:00,
2013-01-02 12:32:00,32.0,32.0,-100.00,ENE,72,0.0,1.0,100,0.00,,,0.00,4.000000,,2013-01-02 21:32:00,
2013-01-02 12:42:00,32.0,32.0,-100.00,ENE,72,0.0,1.0,100,0.00,,,0.00,4.000000,,2013-01-02 21:42:00,
2013-01-02 12:52:00,32.0,32.0,-100.00,ENE,72,0.0,1.0,100,0.00,,,0.00,4.000000,,2013-01-02 21:52:00,
2013-01-02 13:22:00,32.0,32.0,-100.00,NE,34,0.0,2.0,100,0.00,,,0.00,3.000000,,2013-01-02 22:22:00,
2013-01-02 13:32:00,32.0,32.0,-100.00,NE,34,0.0,2.0,100,0.00,,,0.00,3.000000,,2013-01-02 22:32:00,
2013-01-02 13:42:00,32.0,32.0,-100.00,NE,34,0.0,2.0,100,0.00,,,0.00,3.000000,,2013-01-02 22:42:00,
2013-01-02 13:52:00,32.0,32.0,-100.00,NE,34,0.0,2.0,100,0.00,,,0.00,3.000000,,2013-01-02 22:52:00,
2013-01-02 14:22:00,32.0,32.0,-100.00,ESE,110,0.0,3.0,100,0.00,,,0.00,2.000000,,2013-01-02 23:22:00,
2013-01-02 14:33:00,32.0,32.0,-100.00,ESE,110,0.0,3.0,100,0.00,,,0.00,2.000000,,2013-01-02 23:33:00,
2013-01-02 14:42:00,32.0,32.0,-100.00,ESE,110,0.0,3.0,100,0.00,,,0.00,2.000000,,2013-01-02 23:42:00,
2013-01-02 14:52:00,32.0,32.0,-100.00,ESE,110,0.0,3.0,100,0.00,,,0.00,2.000000,,2013-01-02 23:52:00,
2013-01-02 15:22:00,32.0,32.0,-100.00,ESE,106,0.0,2.0,100,0.00,,,0.00,2.000000,,2013-01-03 00:22:00,
2013-01-02 15:37:00,32.0,32.0,-100.00,ESE,106,0.0,2.0,100,0.00,,,0.00,2.000000,,2013-01-03 00:37:00,
2013-01-02 15:52:00,32.0,32.0,-100.00,ESE,106,0.0,2.0,100,0.00,,,0.00,2.000000,,2013-01-03 00:52:00,
2013-01-02 16:22:00,32.0,32.0,-100.00,ENE,66,0.0,1.0,100,0.00,,,0.00,2.000000,,2013-01-03 01:22:00,
2013-01-02 16:32:00,32.0,32.0,-100.00,ENE,66,0.0,1.0,100,0.00,,,0.00,2.000000,,2013-01-03 01:32:00,
2013-01-02 16:42:00,32.0,32.0,-100.00,ENE,66,0.0,1.0,100,0.00,,,0.00,2.000000,,2013-01-03 01:42:00,
2013-01-02 16:52:00,32.0,32.0,-100.00,ENE,66,0.0,1.0,100,0.00,,,0.00,2.000000,,2013-01-03 01:52:00,
2013-01-02 17:22:00,32.0,32.0,-100.00,NE,48,0.0,1.0,100,0.00,,,0.00,0.000000,,2013-01-03 02:22:00,
2013-01-02 17:33:00,32.0,32.0,-100.00,NE,48,0.0,1.0,100,0.00,,,0.00,0.000000,,2013-01-03 02:33:00,
2013-01-02 17:42:00,32.0,32.0,-100.00,NE,48,0.0,1.0,100,0.00,,,0.00,0.000000,,2013-01-03 02:42:00,
2013-01-02 17:52:00,32.0,32.0,-100.00,NE,48,0.0,1.0,100,0.00,,,0.00,0.000000,,2013-01-03 02:52:00,
2013-01-02 18:22:00,32.0,32.0,-100.00,ENE,68,0.0,0.0,100,0.00,,,0.00,0.000000,,2013-01-03 03:22:00,
2013-01-02 18:46:00,32.0,32.0,-100.00,ENE,68,0.0,0.0,100,0.00,,,0.00,0.000000,,2013-01-03 03:46:00,
2013-01-02 18:52:00,32.0,32.0,-100.00,ENE,68,0.0,0.0,100,0.00,,,0.00,0.000000,,2013-01-03 03:52:00,
2013-01-02 19:22:00,32.0,32.0,-100.00,ENE,64,0.0,0.0,100,0.00,,,0.00,0.000000,,2013-01-03 04:22:00,
2013-01-02 19:32:00,32.0,32.0,-100.00,ENE,64,0.0,0.0,100,0.00,,,0.00,0.000000,,2013-01-03 04:32:00,
2013-01-02 19:42:00,32.0,32.0,-100.00,ENE,64,0.0,0.0,100,0.00,,,0.00,0.000000,,2013-01-03 04:42:00,
2013-01-02 19:52:00,32.0,32.0,-100.00,ENE,64,0.0,0.0,100,0.00,,,0.00,0.000000,,2013-01-03 04:52:00,
2013-01-02 20:22:00,32.0,32.0,-100.00,NE,36,0.0,1.0,100,0.00,,,0.00,0.000000,,2013-01-03 05:22:00,
2013-01-02 20:33:00,32.0,32.0,-100.00,NE,36,0.0,1.0,100,0.00,,,0.00,0.000000,,2013-01-03 05:33:00,
2013-01-02 20:42:00,32.0,32.0,-100.00,NE,36,0.0,1.0,100,0.00,,,0.00,0.000000,,2013-01-03 05:42:00,
2013-01-02 20:52:00,32.0,32.0,-100.00,NE,36,0.0,1.0,100,0.00,,,0.00,0.000000,,2013-01-03 05:52:00,
2013-01-02 21:22:00,32.0,32.0,-100.00,NE,51,0.0,2.0,100,0.00,,,0.00,0.000000,,2013-01-03 06:22:00,
2013-01-02 21:32:00,32.0,32.0,-100.00,NE,51,0.0,2.0,100,0.00,,,0.00,0.000000,,2013-01-03 06:32:00,
2013-01-02 21:42:00,32.0,32.0,-100.00,NE,51,0.0,2.0,100,0.00,,,0.00,0.000000,,2013-01-03 06:42:00,
2013-01-02 21:52:00,32.0,32.0,-100.00,NE,51,0.0,2.0,100,0.00,,,0.00,0.000000,,2013-01-03 06:52:00,
2013-01-02 22:22:00,32.0,32.0,-100.00,South,185,0.0,6.0,100,0.00,,,0.00,0.000000,,2013-01-03 07:22:00,
2013-01-02 22:32:00,32.0,32.0,-100.00,South,185,0.0,6.0,100,0.00,,,0.00,0.000000,,2013-01-03 07:32:00,
2013-01-02 22:42:00,32.0,32.0,-100.00,South,185,0.0,6.0,100,0.00,,,0.00,0.000000,,2013-01-03 07:42:00,
2013-01-02 22:52:00,32.0,32.0,-100.00,South,185,0.0,6.0,100,0.00,,,0.00,0.000000,,2013-01-03 07:52:00,
2013-01-02 23:22:00,32.0,32.0,-100.00,ESE,112,1.0,6.0,100,0.00,,,0.00,0.000000,,2013-01-03 08:22:00,
2013-01-02 23:32:00,32.0,32.0,-100.00,ESE,112,1.0,6.0,100,0.00,,,0.00,0.000000,,2013-01-03 08:32:00,
2013-01-02 23:42:00,32.0,32.0,-100.00,ESE,112,1.0,6.0,100,0.00,,,0.00,0.000000,,2013-01-03 08:42:00,
2013-01-02 23:52:00,32.0,32.0,-100.00,ESE,112,1.0,6.0,100,0.00,,,0.00,0.000000,,2013-01-03 08:52:00,